Terminal Aerodrome Forecast
Issued by NWS

Home | Current Version | Previous Version | Text Only | Print | Product List | Glossary On
Versions: 1 2 3 4 5 6 7 8 9 10 11 12 13 14 15 16 17 18 19 20 21 22 23 24 25 26 27 28 29 30
484
FTUS44 KFWD 242337
TAFGKY
TAF
KGKY 242337Z 2500/2524 16015KT P6SM VCTS BKN050CB
      TEMPO 2500/2502 4SM TSRA BKN025CB
     FM250200 16013KT P6SM FEW020 BKN040
     FM250800 18013KT P6SM OVC010
     FM251700 18016KT P6SM BKN025
     FM252200 16015KT P6SM SCT030 BKN060=

USA.gov is the U.S. government's official web portal to all federal, state and local government web resources and services.